createdAt,value
2019-05-05T00:00:56.321Z,85.29
2019-05-05T00:04:14.961Z,85.09
2019-05-05T00:07:25.383Z,85.14
2019-05-05T00:10:40.997Z,85.29
2019-05-05T00:13:50.321Z,85.44
2019-05-05T00:17:02.703Z,85.46
2019-05-05T00:20:06.878Z,85.62
2019-05-05T00:23:10.669Z,85.68
2019-05-05T00:26:15.032Z,86.00
2019-05-05T00:29:18.929Z,86.06
2019-05-05T00:32:24.468Z,86.01
2019-05-05T00:35:28.476Z,85.93
2019-05-05T00:38:32.294Z,86.12
2019-05-05T00:41:36.174Z,86.03
2019-05-05T00:44:39.973Z,86.15
2019-05-05T00:48:04.683Z,86.31
2019-05-05T00:51:08.315Z,85.96
2019-05-05T00:54:12.143Z,86.07
2019-05-05T00:57:15.994Z,86.23
2019-05-05T01:00:37.167Z,86.26
2019-05-05T01:03:40.952Z,86.27
2019-05-05T01:06:45.088Z,86.12
2019-05-05T01:09:49.028Z,86.29
2019-05-05T01:12:54.455Z,86.38
2019-05-05T01:15:58.546Z,86.40
2019-05-05T01:19:04.377Z,86.36
2019-05-05T01:22:08.055Z,86.48
2019-05-05T01:25:14.654Z,86.51
2019-05-05T01:28:18.705Z,86.59
2019-05-05T01:31:25.119Z,86.52
2019-05-05T01:34:32.494Z,86.51
2019-05-05T01:37:51.215Z,86.45
2019-05-05T01:41:17.340Z,86.39
2019-05-05T01:44:21.133Z,86.29
2019-05-05T01:47:25.533Z,86.21
2019-05-05T01:50:29.501Z,86.24
2019-05-05T01:53:34.961Z,86.16
2019-05-05T01:56:39.144Z,86.12
2019-05-05T01:59:44.770Z,86.17
2019-05-05T02:02:48.998Z,86.10
2019-05-05T02:05:54.599Z,86.29
2019-05-05T02:08:58.646Z,86.42
2019-05-05T02:12:02.525Z,86.45
2019-05-05T02:15:06.524Z,86.26
2019-05-05T02:18:10.386Z,86.23
2019-05-05T02:21:14.389Z,86.24
2019-05-05T02:24:18.360Z,86.18
2019-05-05T02:27:22.315Z,86.30
2019-05-05T02:30:35.977Z,86.25
2019-05-05T02:33:39.406Z,86.33
2019-05-05T02:36:45.965Z,86.53
2019-05-05T02:39:57.725Z,86.65
2019-05-05T02:42:55.104Z,86.37
2019-05-05T02:46:18.261Z,86.41
2019-05-05T02:49:22.317Z,86.59
2019-05-05T02:52:26.686Z,86.50
2019-05-05T02:55:34.664Z,86.75
2019-05-05T02:58:38.967Z,86.74
2019-05-05T03:01:53.857Z,86.88
2019-05-05T03:04:58.135Z,87.09
2019-05-05T03:08:02.289Z,86.98
2019-05-05T03:11:07.344Z,87.02
2019-05-05T03:14:14.520Z,86.81
2019-05-05T03:17:18.882Z,86.73
2019-05-05T03:20:23.799Z,87.09
2019-05-05T03:23:27.869Z,86.90
2019-05-05T03:26:33.895Z,87.22
2019-05-05T03:29:37.568Z,87.21
2019-05-05T03:32:41.443Z,87.20
2019-05-05T03:35:46.096Z,87.18
2019-05-05T03:38:53.553Z,86.85
2019-05-05T03:42:14.321Z,86.72
2019-05-05T03:45:27.070Z,86.43
2019-05-05T03:48:31.004Z,86.56
2019-05-05T03:51:34.965Z,86.87
2019-05-05T03:54:38.907Z,86.90
2019-05-05T03:57:44.502Z,86.65
2019-05-05T04:01:48.472Z,86.64
2019-05-05T04:04:54.816Z,86.62
2019-05-05T04:07:59.319Z,86.75
2019-05-05T04:11:04.039Z,86.92
2019-05-05T04:14:07.957Z,87.09
2019-05-05T04:17:29.860Z,87.12
2019-05-05T04:20:39.238Z,87.08
2019-05-05T04:23:44.226Z,87.08
2019-05-05T04:26:48.269Z,87.04
2019-05-05T04:29:54.317Z,87.25
2019-05-05T04:32:57.608Z,87.39
2019-05-05T04:36:01.443Z,87.15
2019-05-05T04:39:07.408Z,87.14
2019-05-05T04:42:11.255Z,87.28
2019-05-05T04:45:15.485Z,87.16
2019-05-05T04:48:26.084Z,87.12
2019-05-05T04:51:47.055Z,87.11
2019-05-05T04:54:51.235Z,87.08
2019-05-05T04:57:55.061Z,87.15
2019-05-05T05:00:58.853Z,87.26
2019-05-05T05:04:13.828Z,87.36
2019-05-05T05:07:18.585Z,87.94
2019-05-05T05:10:24.042Z,87.95
2019-05-05T05:13:27.988Z,88.13
2019-05-05T05:16:31.805Z,88.14
2019-05-05T05:19:35.631Z,88.26
2019-05-05T05:22:39.482Z,88.49
2019-05-05T05:25:43.920Z,88.39
2019-05-05T05:28:47.922Z,88.95
2019-05-05T05:31:53.507Z,88.55
2019-05-05T05:34:57.274Z,88.51
2019-05-05T05:38:01.155Z,88.50
2019-05-05T05:41:16.407Z,88.15
2019-05-05T05:44:53.420Z,88.71
2019-05-05T05:48:10.195Z,88.92
2019-05-05T05:51:19.093Z,88.81
2019-05-05T05:54:23.495Z,89.25
2019-05-05T05:57:27.476Z,89.35
2019-05-05T06:00:31.338Z,89.41
2019-05-05T06:03:35.215Z,89.14
2019-05-05T06:06:39.171Z,89.07
2019-05-05T06:09:43.887Z,89.41
2019-05-05T06:12:47.831Z,89.46
2019-05-05T06:15:53.447Z,89.75
2019-05-05T06:18:57.495Z,89.86
2019-05-05T06:22:03.386Z,89.47
2019-05-05T06:25:07.217Z,89.08
2019-05-05T06:28:11.110Z,87.93
2019-05-05T06:31:15.240Z,86.84
2019-05-05T06:34:19.076Z,85.33
2019-05-05T06:37:23.773Z,82.60
2019-05-05T06:40:45.729Z,80.82
2019-05-05T06:44:11.661Z,80.65
2019-05-05T06:47:18.408Z,79.43
2019-05-05T06:50:24.179Z,79.00
2019-05-05T06:53:27.897Z,78.84
2019-05-05T06:56:31.789Z,77.59
2019-05-05T06:59:35.614Z,75.48
2019-05-05T07:02:39.442Z,75.13
2019-05-05T07:05:43.876Z,74.95
2019-05-05T07:08:47.892Z,74.30
2019-05-05T07:11:53.941Z,73.01
2019-05-05T07:14:57.393Z,72.43
2019-05-05T07:18:01.185Z,72.54
2019-05-05T07:21:05.070Z,71.50
2019-05-05T07:24:08.951Z,70.76
2019-05-05T07:27:13.852Z,69.62
2019-05-05T07:30:17.932Z,68.78
2019-05-05T07:33:23.758Z,67.00
2019-05-05T07:36:40.793Z,69.10
2019-05-05T07:39:44.724Z,67.27
2019-05-05T07:42:48.548Z,68.29
2019-05-05T07:45:54.012Z,67.29
2019-05-05T07:48:58.043Z,65.18
2019-05-05T07:52:03.908Z,64.87
2019-05-05T07:55:07.587Z,62.53
2019-05-05T07:58:13.723Z,63.74
2019-05-05T08:01:17.023Z,61.07
2019-05-05T08:04:20.847Z,62.92
2019-05-05T08:07:24.685Z,62.22
2019-05-05T08:10:28.514Z,62.29
2019-05-05T08:13:33.633Z,60.52
2019-05-05T08:16:53.603Z,62.03
2019-05-05T08:20:03.861Z,61.21
2019-05-05T08:23:10.449Z,60.42
2019-05-05T08:26:44.090Z,59.95
2019-05-05T08:29:51.864Z,59.40
2019-05-05T08:32:55.778Z,62.14
2019-05-05T08:35:59.681Z,63.00
2019-05-05T08:39:03.820Z,58.44
2019-05-05T08:42:07.804Z,59.59
2019-05-05T08:45:13.714Z,58.58
2019-05-05T08:48:17.312Z,60.73
2019-05-05T08:51:21.135Z,58.01
2019-05-05T08:54:24.981Z,57.20
2019-05-05T08:57:28.880Z,56.80
2019-05-05T09:00:33.794Z,56.82
2019-05-05T09:03:37.884Z,58.04
2019-05-05T09:06:43.686Z,60.10
2019-05-05T09:09:47.315Z,60.11
2019-05-05T09:12:51.115Z,60.48
2019-05-05T09:15:54.947Z,61.36
2019-05-05T09:19:09.260Z,58.12
2019-05-05T09:22:14.014Z,58.81
2019-05-05T09:25:30.197Z,58.25
2019-05-05T09:29:04.291Z,59.19
2019-05-05T09:32:07.936Z,60.93
2019-05-05T09:35:13.859Z,60.19
2019-05-05T09:38:18.287Z,56.98
2019-05-05T09:41:23.558Z,55.74
2019-05-05T09:44:27.466Z,54.46
2019-05-05T09:47:31.288Z,52.38
2019-05-05T09:50:35.156Z,53.14
2019-05-05T09:53:39.093Z,53.97
2019-05-05T09:56:44.440Z,56.48
2019-05-05T09:59:48.418Z,57.07
2019-05-05T10:02:54.344Z,55.28
2019-05-05T10:05:57.782Z,52.14
2019-05-05T10:09:01.599Z,52.70
2019-05-05T10:12:05.557Z,54.13
2019-05-05T10:15:09.643Z,52.16
2019-05-05T10:18:14.172Z,52.49
2019-05-05T10:21:18.233Z,53.47
2019-05-05T10:24:31.126Z,51.54
2019-05-05T10:27:44.633Z,53.79
2019-05-05T10:30:40.594Z,50.90
2019-05-05T10:33:49.277Z,50.72
2019-05-05T10:36:53.651Z,49.37
2019-05-05T10:39:57.502Z,49.69
2019-05-05T10:43:01.326Z,50.90
2019-05-05T10:46:05.212Z,49.66
2019-05-05T10:49:09.076Z,49.10
2019-05-05T10:52:14.254Z,50.10
2019-05-05T10:55:18.769Z,49.00
2019-05-05T10:58:24.406Z,50.35
2019-05-05T11:01:28.473Z,48.08
2019-05-05T11:04:33.562Z,47.88
2019-05-05T11:07:37.704Z,46.81
2019-05-05T11:10:41.675Z,47.26
2019-05-05T11:13:47.910Z,49.07
2019-05-05T11:16:51.793Z,47.12
2019-05-05T11:19:55.682Z,47.65
2019-05-05T11:22:59.696Z,48.56
2019-05-05T11:26:03.594Z,46.64
2019-05-05T11:29:07.392Z,44.31
2019-05-05T11:32:17.488Z,47.13
2019-05-05T11:35:24.468Z,48.51
2019-05-05T11:38:28.417Z,46.23
2019-05-05T11:41:32.241Z,47.75
2019-05-05T11:44:36.077Z,46.07
2019-05-05T11:47:39.897Z,47.55
2019-05-05T11:50:43.905Z,46.73
2019-05-05T11:53:47.738Z,45.15
2019-05-05T11:56:53.715Z,45.23
2019-05-05T11:59:57.200Z,47.00
2019-05-05T12:03:01.008Z,46.90
2019-05-05T12:06:04.982Z,46.53
2019-05-05T12:09:17.249Z,45.87
2019-05-05T12:12:21.052Z,47.77
2019-05-05T12:15:25.779Z,48.16
2019-05-05T12:18:30.647Z,47.43
2019-05-05T12:21:34.545Z,48.63
2019-05-05T12:24:44.286Z,48.57
2019-05-05T12:28:07.245Z,47.68
2019-05-05T12:31:15.935Z,48.27
2019-05-05T12:34:19.738Z,47.43
2019-05-05T12:37:23.748Z,47.04
2019-05-05T12:40:27.628Z,46.58
2019-05-05T12:43:33.887Z,46.90
2019-05-05T12:46:47.248Z,46.08
2019-05-05T12:49:51.133Z,47.03
2019-05-05T12:52:55.041Z,47.73
2019-05-05T12:55:58.880Z,45.67
2019-05-05T12:59:05.382Z,47.05
2019-05-05T13:02:09.245Z,48.28
2019-05-05T13:05:14.484Z,47.97
2019-05-05T13:08:18.448Z,48.03
2019-05-05T13:11:23.771Z,45.71
2019-05-05T13:14:27.743Z,46.63
2019-05-05T13:17:33.774Z,46.31
2019-05-05T13:20:46.977Z,46.15
2019-05-05T13:24:00.031Z,45.71
2019-05-05T13:27:09.650Z,47.27
2019-05-05T13:30:13.204Z,47.50
2019-05-05T13:33:17.147Z,45.44
2019-05-05T13:36:20.985Z,46.11
2019-05-05T13:39:24.940Z,44.70
2019-05-05T13:42:28.760Z,44.16
2019-05-05T13:45:44.677Z,43.52
2019-05-05T13:48:48.584Z,43.38
2019-05-05T13:51:54.073Z,44.23
2019-05-05T13:54:58.101Z,42.93
2019-05-05T13:58:03.842Z,45.02
2019-05-05T14:01:09.895Z,46.17
2019-05-05T14:04:13.279Z,46.46
2019-05-05T14:07:17.108Z,47.85
2019-05-05T14:10:21.091Z,47.46
2019-05-05T14:13:24.910Z,46.26
2019-05-05T14:16:28.747Z,45.66
2019-05-05T14:19:34.084Z,47.38
2019-05-05T14:22:38.113Z,45.55
2019-05-05T14:25:43.963Z,45.58
2019-05-05T14:28:47.473Z,46.83
2019-05-05T14:31:54.067Z,48.38
2019-05-05T14:35:06.292Z,48.77
2019-05-05T14:38:14.599Z,48.07
2019-05-05T14:41:18.471Z,48.22
2019-05-05T14:44:24.046Z,49.29
2019-05-05T14:47:27.951Z,47.75
2019-05-05T14:50:31.858Z,47.48
2019-05-05T14:53:35.691Z,48.10
2019-05-05T14:56:39.703Z,48.86
2019-05-05T14:59:43.621Z,51.79
2019-05-05T15:02:47.457Z,55.86
2019-05-05T15:05:57.889Z,56.68
2019-05-05T15:09:33.635Z,55.85
2019-05-05T15:12:44.661Z,56.50
2019-05-05T15:15:48.734Z,56.89
2019-05-05T15:18:52.558Z,58.15
2019-05-05T15:21:56.462Z,59.75
2019-05-05T15:25:00.355Z,59.19
2019-05-05T15:28:04.814Z,59.85
2019-05-05T15:31:08.724Z,59.76
2019-05-05T15:34:12.514Z,59.96
2019-05-05T15:37:16.349Z,60.02
2019-05-05T15:40:20.410Z,60.12
2019-05-05T15:43:24.498Z,59.42
2019-05-05T15:46:28.298Z,58.16
2019-05-05T15:49:32.180Z,57.21
2019-05-05T15:52:36.041Z,57.43
2019-05-05T15:55:39.873Z,56.17
2019-05-05T15:58:43.765Z,54.83
2019-05-05T16:01:47.564Z,55.09
2019-05-05T16:04:51.669Z,55.82
2019-05-05T16:07:55.674Z,56.73
2019-05-05T16:10:59.791Z,57.58
2019-05-05T16:14:03.958Z,57.52
2019-05-05T16:17:33.374Z,58.39
2019-05-05T16:20:41.375Z,58.48
2019-05-05T16:23:55.406Z,57.92
2019-05-05T16:27:01.657Z,58.47
2019-05-05T16:30:06.220Z,56.29
2019-05-05T16:33:10.103Z,56.86
2019-05-05T16:36:14.005Z,56.90
2019-05-05T16:39:17.872Z,56.70
2019-05-05T16:42:23.912Z,58.49
2019-05-05T16:45:27.594Z,58.25
2019-05-05T16:48:31.496Z,59.55
2019-05-05T16:51:39.360Z,59.83
2019-05-05T16:55:01.071Z,59.30
2019-05-05T16:58:06.767Z,59.69
2019-05-05T17:01:14.501Z,60.58
2019-05-05T17:04:18.356Z,59.58
2019-05-05T17:07:23.768Z,60.97
2019-05-05T17:10:27.676Z,59.14
2019-05-05T17:14:08.843Z,55.64
2019-05-05T17:17:26.960Z,55.39
2019-05-05T17:20:33.693Z,56.00
2019-05-05T17:23:37.627Z,56.49
2019-05-05T17:26:43.754Z,58.22
2019-05-05T17:29:46.986Z,57.87
2019-05-05T17:32:50.971Z,56.81
2019-05-05T17:35:54.915Z,56.52
2019-05-05T17:38:58.740Z,56.86
2019-05-05T17:42:16.421Z,58.41
2019-05-05T17:45:38.073Z,58.97
2019-05-05T17:48:46.642Z,59.85
2019-05-05T17:52:03.760Z,60.90
2019-05-05T17:55:27.532Z,62.28
2019-05-05T17:58:30.898Z,62.99
2019-05-05T18:01:34.790Z,62.47
2019-05-05T18:04:39.399Z,62.82
2019-05-05T18:07:45.419Z,63.63
2019-05-05T18:10:49.904Z,64.48
2019-05-05T18:13:57.719Z,65.35
2019-05-05T18:17:01.523Z,65.42
2019-05-05T18:20:06.035Z,65.44
2019-05-05T18:23:09.871Z,64.68
2019-05-05T18:26:13.805Z,65.33
2019-05-05T18:29:17.639Z,66.10
2019-05-05T18:32:23.429Z,65.22
2019-05-05T18:35:27.078Z,64.56
2019-05-05T18:38:30.876Z,65.27
2019-05-05T18:41:44.063Z,65.29
2019-05-05T18:44:50.190Z,65.96
2019-05-05T18:47:54.163Z,66.53
2019-05-05T18:50:58.184Z,67.38
2019-05-05T18:54:04.060Z,67.94
2019-05-05T18:57:08.373Z,68.94
2019-05-05T19:00:15.565Z,69.31
2019-05-05T19:03:24.494Z,70.93
2019-05-05T19:06:46.104Z,71.76
2019-05-05T19:09:53.865Z,72.85
2019-05-05T19:12:55.605Z,73.47
2019-05-05T19:15:59.381Z,73.26
2019-05-05T19:19:03.631Z,73.93
2019-05-05T19:22:10.254Z,74.17
2019-05-05T19:25:16.982Z,74.96
2019-05-05T19:28:20.794Z,75.22
2019-05-05T19:31:24.720Z,75.69
2019-05-05T19:34:28.561Z,75.38
2019-05-05T19:37:33.550Z,74.48
2019-05-05T19:40:37.505Z,74.74
2019-05-05T19:43:54.708Z,75.10
2019-05-05T19:47:05.861Z,75.42
2019-05-05T19:50:24.433Z,75.95
2019-05-05T19:53:28.430Z,77.11
2019-05-05T19:56:33.852Z,76.88
2019-05-05T19:59:37.796Z,77.35
2019-05-05T20:02:43.824Z,77.82
2019-05-05T20:05:47.931Z,76.88
2019-05-05T20:08:53.690Z,75.35
2019-05-05T20:11:57.301Z,76.24
2019-05-05T20:15:03.921Z,76.94
2019-05-05T20:18:07.671Z,77.63
2019-05-05T20:21:11.504Z,78.00
2019-05-05T20:24:15.322Z,78.51
2019-05-05T20:27:19.245Z,78.91
2019-05-05T20:30:24.678Z,78.96
2019-05-05T20:33:34.828Z,79.15
2019-05-05T20:36:57.843Z,79.57
2019-05-05T20:40:03.845Z,79.98
2019-05-05T20:43:07.383Z,79.76
2019-05-05T20:46:12.054Z,80.29
2019-05-05T20:49:15.982Z,81.17
2019-05-05T20:52:19.798Z,81.30
2019-05-05T20:55:25.774Z,80.22
2019-05-05T20:58:29.287Z,80.44
2019-05-05T21:01:34.123Z,80.89
2019-05-05T21:04:38.154Z,81.43
2019-05-05T21:07:44.213Z,80.67
2019-05-05T21:10:47.538Z,78.91
2019-05-05T21:13:51.419Z,79.52
2019-05-05T21:16:55.352Z,79.69
2019-05-05T21:19:59.183Z,79.23
2019-05-05T21:23:27.984Z,80.42
2019-05-05T21:26:56.588Z,80.24
2019-05-05T21:30:00.425Z,80.08
2019-05-05T21:33:04.652Z,80.68
2019-05-05T21:36:08.518Z,81.36
2019-05-05T21:39:14.652Z,81.05
2019-05-05T21:42:17.990Z,80.74
2019-05-05T21:45:21.771Z,80.84
2019-05-05T21:48:25.602Z,81.39
2019-05-05T21:51:47.175Z,81.56
2019-05-05T21:54:58.048Z,81.38
2019-05-05T21:58:35.987Z,81.85
2019-05-05T22:01:40.982Z,82.69
2019-05-05T22:04:45.202Z,83.30
2019-05-05T22:07:49.110Z,83.29
2019-05-05T22:10:54.375Z,83.43
2019-05-05T22:13:58.324Z,83.37
2019-05-05T22:17:03.983Z,83.89
2019-05-05T22:20:14.848Z,84.10
2019-05-05T22:23:18.785Z,84.73
2019-05-05T22:26:24.004Z,84.89
2019-05-05T22:29:28.016Z,85.49
2019-05-05T22:32:31.841Z,86.44
2019-05-05T22:35:36.279Z,86.81
2019-05-05T22:38:40.187Z,86.04
2019-05-05T22:41:44.731Z,85.45
2019-05-05T22:44:48.546Z,85.69
2019-05-05T22:47:54.216Z,87.14
2019-05-05T22:50:57.948Z,86.99
2019-05-05T22:54:03.936Z,86.92
2019-05-05T22:57:07.556Z,86.73
2019-05-05T23:00:25.771Z,86.95
2019-05-05T23:03:29.481Z,87.12
2019-05-05T23:06:33.720Z,86.68
2019-05-05T23:09:37.558Z,86.89
2019-05-05T23:12:41.380Z,87.51
2019-05-05T23:15:54.329Z,87.69
2019-05-05T23:18:59.210Z,86.87
2019-05-05T23:22:11.991Z,87.42
2019-05-05T23:25:24.167Z,88.19
2019-05-05T23:28:28.133Z,87.18
2019-05-05T23:31:33.578Z,87.50
2019-05-05T23:34:37.459Z,87.96
2019-05-05T23:37:41.357Z,87.43
2019-05-05T23:40:45.199Z,87.88
2019-05-05T23:43:49.128Z,87.43
2019-05-05T23:46:53.778Z,87.11
2019-05-05T23:49:57.853Z,87.69
2019-05-05T23:53:01.660Z,87.37
2019-05-05T23:56:05.550Z,87.40
2019-05-05T23:59:09.414Z,87.89
